M I D A S
Marine Information and Data Acquisition System
Tripno 1243 of the Zeeleeuw from 2007-03-30 07:34:46 to 2007-03-30 14:13:55
Back to CruiseResearch ActivitiesStationsMapUnderway DataData graphs

EquipmentUnitsComments
TimeDGPSUTC
LatitudeDGPSDM.mWGS84
LongitudeDGPSDM.mWGS84
SpeedMeteo Stationm/sRelative wind speed
DirectionMeteo StationdegRelative wind direction
TemperatureMeteo Stationdeg CelciusAir temperature
PressureMeteo StationPaAtmospheric pressure
HumidityMeteo Station%Relative humidity
Missing or incorrect values are displayed as -999
Metereological data collected by the RV Zeeleeuw from 2007-03-30 07:35:03 to 2007-03-30 14:25:15
                                                                                    Next 1000 lines
Time Latitude Longitude Speed Direction Temperature Pressure Humidity
2007-03-30 07:35:13 51°13.602 2°56.095 3 320 7 100980 100
2007-03-30 07:35:17 51°13.602 2°56.093 2.4 318 7 100980 100
2007-03-30 07:35:23 51°13.603 2°56.089 2.1 33 7 100980 100
2007-03-30 07:35:28 51°13.604 2°56.085 1.8 281 7 100980 100
2007-03-30 07:35:34 51°13.605 2°56.08 1.5 257 7 100980 100
2007-03-30 07:35:39 51°13.606 2°56.075 1.3 288 7 100980 100
2007-03-30 07:35:45 51°13.608 2°56.069 1.3 36 7 100980 100
2007-03-30 07:35:51 51°13.609 2°56.062 1 286 7 100980 100
2007-03-30 07:35:56 51°13.611 2°56.056 1 38 7 100980 100
2007-03-30 07:36:01 51°13.613 2°56.05 0.8 286 7 100980 100
2007-03-30 07:36:06 51°13.614 2°56.044 0.7 239 7 100980 100
2007-03-30 07:36:11 51°13.616 2°56.037 1.5 278 7 100980 100
2007-03-30 07:36:16 51°13.618 2°56.03 1.4 246 7 100980 100
2007-03-30 07:36:21 51°13.619 2°56.023 1.4 246 7 100980 100
2007-03-30 07:36:26 51°13.621 2°56.015 0.7 270 7 100980 100
2007-03-30 07:36:31 51°13.623 2°56.007 0.9 286 7 100980 100
2007-03-30 07:36:36 51°13.625 2°55.999 0.7 255 7 100980 100
2007-03-30 07:36:41 51°13.627 2°55.991 1.2 283 7 100980 100
2007-03-30 07:36:46 51°13.629 2°55.983 1.3 251 7 100980 100
2007-03-30 07:36:51 51°13.632 2°55.975 1.7 284 7 100980 100
2007-03-30 07:36:56 51°13.634 2°55.968 2.2 265 7 100980 100
2007-03-30 07:37:01 51°13.637 2°55.96 2.5 282 7 100980 100
2007-03-30 07:37:06 51°13.64 2°55.953 3.2 255 7 100980 100
2007-03-30 07:37:11 51°13.643 2°55.946 2.9 286 7 100980 100
2007-03-30 07:37:16 51°13.645 2°55.938 1.6 36 7 100980 100
2007-03-30 07:37:21 51°13.648 2°55.931 2 29 7 100980 100
2007-03-30 07:37:26 51°13.65 2°55.925 1.6 255 7 100980 100
2007-03-30 07:37:31 51°13.652 2°55.918 2.3 279 7 100980 100
2007-03-30 07:37:36 51°13.655 2°55.912 2 260 7 100980 100
2007-03-30 07:37:41 51°13.658 2°55.906 2.7 282 7 100980 100
2007-03-30 07:37:46 51°13.66 2°55.9 2.8 261 7 100980 100
2007-03-30 07:37:51 51°13.663 2°55.895 3.3 281 7 100980 100
2007-03-30 07:37:56 51°13.666 2°55.89 3.8 257 7 100980 100
2007-03-30 07:38:01 51°13.668 2°55.885 3.9 281 7 100980 100
2007-03-30 07:38:06 51°13.671 2°55.881 3.9 255 7 100980 100
2007-03-30 07:38:11 51°13.674 2°55.877 3.1 280 7 100980 100
2007-03-30 07:38:16 51°13.676 2°55.873 3 249 7 100980 100
2007-03-30 07:38:21 51°13.677 2°55.87 3.1 24 7 100980 100
2007-03-30 07:38:26 51°13.679 2°55.867 3.5 235 7 100980 100
2007-03-30 07:38:31 51°13.68 2°55.864 3.4 286 7 100980 100
2007-03-30 07:38:36 51°13.682 2°55.862 2.9 37 7 100980 100
2007-03-30 07:38:41 51°13.682 2°55.861 2 278 7 100980 100
2007-03-30 07:38:46 51°13.683 2°55.86 2.5 38 7 100980 100
2007-03-30 07:38:51 51°13.683 2°55.86 2.9 285 7 100980 100
2007-03-30 07:38:56 51°13.682 2°55.86 3.3 32 7 100980 100
2007-03-30 07:39:01 51°13.682 2°55.861 3.1 278 7 100980 100
2007-03-30 07:39:06 51°13.683 2°55.86 3.1 37 7 100980 100
2007-03-30 07:39:10 51°13.683 2°55.86 4.2 285 7 100970 100
2007-03-30 07:39:16 51°13.683 2°55.859 3.4 248 7 100970 100
2007-03-30 07:39:20 51°13.684 2°55.857 3.6 26 7 100970 100
2007-03-30 07:39:25 51°13.685 2°55.855 2.6 34 7 100970 100
2007-03-30 07:39:30 51°13.686 2°55.851 3.4 280 7 100980 100
2007-03-30 07:39:36 51°13.689 2°55.846 3.4 237 7 100980 100
2007-03-30 07:39:41 51°13.691 2°55.842 2.4 286 7 100980 100
2007-03-30 07:39:46 51°13.693 2°55.836 2.3 245 7 100980 100
2007-03-30 07:39:51 51°13.696 2°55.832 2.6 284 7 100980 100
2007-03-30 07:39:56 51°13.698 2°55.826 2.4 238 7 100980 100
2007-03-30 07:40:01 51°13.701 2°55.821 2.5 280 7 100980 100
2007-03-30 07:40:06 51°13.703 2°55.816 2.4 243 7 100980 100
2007-03-30 07:40:11 51°13.705 2°55.81 1.6 279 7 100980 100
2007-03-30 07:40:16 51°13.708 2°55.805 1.2 235 7 100980 100
2007-03-30 07:40:21 51°13.71 2°55.799 1.1 25 7 100980 100
2007-03-30 07:40:26 51°13.712 2°55.794 2 240 7 100980 100
2007-03-30 07:40:31 51°13.714 2°55.788 1.6 278 7 100980 100
2007-03-30 07:40:36 51°13.716 2°55.782 1.6 260 7 100980 100
2007-03-30 07:40:42 51°13.719 2°55.774 2.7 285 7 100980 100
2007-03-30 07:40:46 51°13.721 2°55.769 2.6 243 7 100980 100
2007-03-30 07:40:51 51°13.723 2°55.762 2.5 279 7 100980 100
2007-03-30 07:40:56 51°13.726 2°55.755 1.8 31 7 100980 100
2007-03-30 07:41:01 51°13.728 2°55.748 2.4 280 7 100980 100
2007-03-30 07:41:07 51°13.731 2°55.74 1.4 261 7 100980 100
2007-03-30 07:41:11 51°13.732 2°55.734 1.7 284 7 100980 100
2007-03-30 07:41:16 51°13.734 2°55.728 2.1 251 7 100980 100
2007-03-30 07:41:21 51°13.736 2°55.722 1.4 262 7 100980 100
2007-03-30 07:41:26 51°13.737 2°55.717 1.3 243 7 100980 100
2007-03-30 07:41:31 51°13.738 2°55.712 1.9 282 7 100980 100
2007-03-30 07:41:36 51°13.74 2°55.707 1.7 234 7 100980 100
2007-03-30 07:41:41 51°13.741 2°55.703 2 279 7 100980 100
2007-03-30 07:41:46 51°13.742 2°55.7 2 326 7 100980 100
2007-03-30 07:41:50 51°13.743 2°55.698 1.9 286 7 100980 100
2007-03-30 07:41:56 51°13.743 2°55.698 2.2 327 7 100980 100
2007-03-30 07:42:01 51°13.743 2°55.698 2.9 280 7 100980 100
2007-03-30 07:42:05 51°13.744 2°55.699 3 334 7 100980 100
2007-03-30 07:42:10 51°13.744 2°55.7 2.5 284 7 100980 100
2007-03-30 07:42:16 51°13.745 2°55.701 2.9 334 7 100980 100
2007-03-30 07:42:20 51°13.745 2°55.702 2.8 334 7 100980 100
2007-03-30 07:42:25 51°13.745 2°55.702 2.1 34 7 100980 100
2007-03-30 07:42:30 51°13.745 2°55.701 2.6 281 7 100980 100
2007-03-30 07:42:35 51°13.745 2°55.7 2.7 35 7 100980 100
2007-03-30 07:42:40 51°13.745 2°55.698 2.7 283 7 100980 100
2007-03-30 07:42:45 51°13.745 2°55.695 2.3 331 7 100980 100
2007-03-30 07:42:50 51°13.745 2°55.693 2.2 284 7 100980 100
2007-03-30 07:42:55 51°13.744 2°55.69 2.5 333 7 100980 100
2007-03-30 07:43:00 51°13.744 2°55.688 1.3 282 7 100980 100
2007-03-30 07:43:05 51°13.744 2°55.686 1.1 342 7 100980 100
2007-03-30 07:43:11 51°13.743 2°55.683 1.2 281 7 100980 100
2007-03-30 07:43:16 51°13.743 2°55.681 1.6 353 7 100980 100
2007-03-30 07:43:21 51°13.743 2°55.679 1.6 2 7 100980 100
2007-03-30 07:43:26 51°13.743 2°55.678 2.1 351 7 100980 100
2007-03-30 07:43:31 51°13.743 2°55.678 1.5 346 7 100980 100
2007-03-30 07:43:36 51°13.743 2°55.677 1.4 348 7 100980 100
2007-03-30 07:43:41 51°13.743 2°55.677 3 282 7 100980 100
2007-03-30 07:43:46 51°13.743 2°55.678 3.2 351 7 100980 100
2007-03-30 07:43:51 51°13.744 2°55.678 3.2 286 7 100980 100
2007-03-30 07:43:56 51°13.745 2°55.679 2.6 334 7 100980 100
2007-03-30 07:44:01 51°13.746 2°55.68 2 279 7 100980 100
2007-03-30 07:44:06 51°13.747 2°55.682 2.7 356 7 100980 100
2007-03-30 07:44:10 51°13.748 2°55.683 2.2 353 7 100980 100
2007-03-30 07:44:16 51°13.75 2°55.685 2 2 7 100980 100
2007-03-30 07:44:21 51°13.752 2°55.686 2.1 3 7 100980 100
2007-03-30 07:44:25 51°13.754 2°55.686 3.3 6 7 100980 100
2007-03-30 07:44:30 51°13.757 2°55.687 3.5 2 7 100980 100
2007-03-30 07:44:35 51°13.759 2°55.687 3.9 8 7 100980 100
2007-03-30 07:44:40 51°13.762 2°55.688 3.9 357 7 100980 100
2007-03-30 07:44:45 51°13.765 2°55.687 3.1 357 7 100980 100
2007-03-30 07:44:50 51°13.769 2°55.686 2.5 358 7 100980 100
2007-03-30 07:44:55 51°13.773 2°55.685 2.8 358 7 100980 100
2007-03-30 07:45:00 51°13.777 2°55.683 3.1 13 7 100980 100
2007-03-30 07:45:05 51°13.781 2°55.681 2.6 356 7 100980 100
2007-03-30 07:45:09 51°13.785 2°55.679 1.5 1 7 100980 100
2007-03-30 07:45:14 51°13.789 2°55.676 1.2 13 7 100980 100
2007-03-30 07:45:20 51°13.795 2°55.671 1.6 21 7 100980 100
2007-03-30 07:45:25 51°13.8 2°55.667 3.5 4 7 100980 100
2007-03-30 07:45:29 51°13.805 2°55.662 3.1 280 7 100980 100
2007-03-30 07:45:34 51°13.811 2°55.658 3.4 354 7 100980 100
2007-03-30 07:45:39 51°13.818 2°55.652 3.3 280 7 100980 100
2007-03-30 07:45:44 51°13.824 2°55.647 3.1 335 7 100980 100
2007-03-30 07:45:49 51°13.832 2°55.641 2.5 347 7.1 100980 100
2007-03-30 07:45:54 51°13.839 2°55.634 2.5 330 7.1 100980 100
2007-03-30 07:45:59 51°13.847 2°55.628 3.1 281 7 100980 100
2007-03-30 07:46:04 51°13.855 2°55.621 3.1 343 7 100980 100
2007-03-30 07:46:09 51°13.864 2°55.614 4.6 356 7.1 100980 100
2007-03-30 07:46:14 51°13.872 2°55.607 4.1 347 7.1 100980 100
2007-03-30 07:46:18 51°13.88 2°55.602 4.3 350 7 100980 100
2007-03-30 07:46:23 51°13.889 2°55.593 4.5 353 7 100980 100
2007-03-30 07:46:28 51°13.899 2°55.585 4.5 347 7 100980 100
2007-03-30 07:46:33 51°13.909 2°55.577 4.6 354 7 100980 100
2007-03-30 07:46:38 51°13.92 2°55.569 4.2 280 7 100980 100
2007-03-30 07:46:43 51°13.93 2°55.56 4.7 346 7 100980 100
2007-03-30 07:46:48 51°13.941 2°55.552 4.5 359 7 100980 100
2007-03-30 07:46:53 51°13.953 2°55.544 4.8 351 7 100980 100
2007-03-30 07:46:58 51°13.964 2°55.535 4.2 282 7 100980 100
2007-03-30 07:47:03 51°13.976 2°55.526 5.1 347 7 100980 100
2007-03-30 07:47:07 51°13.986 2°55.519 4.6 350 7 100980 100
2007-03-30 07:47:13 51°14 2°55.508 5 346 7 100980 100
2007-03-30 07:47:18 51°14.012 2°55.499 4.8 345 7 100980 100
2007-03-30 07:47:23 51°14.024 2°55.491 6.1 348 7 100980 100
2007-03-30 07:47:28 51°14.036 2°55.482 5.1 279 7 100980 100
2007-03-30 07:47:33 51°14.049 2°55.473 4.7 352 7 100980 100
2007-03-30 07:47:38 51°14.061 2°55.464 4.7 279 7 100980 100
2007-03-30 07:47:43 51°14.073 2°55.455 4.5 340 7 100980 100
2007-03-30 07:47:48 51°14.085 2°55.446 5.2 351 7 100980 100
2007-03-30 07:47:53 51°14.097 2°55.437 5.1 352 7 100980 100
2007-03-30 07:47:58 51°14.109 2°55.428 5.7 286 7 100980 100
2007-03-30 07:48:03 51°14.122 2°55.418 4.9 353 7 100980 100
2007-03-30 07:48:08 51°14.134 2°55.409 5.7 350 7 100980 100
2007-03-30 07:48:13 51°14.146 2°55.398 5 346 7 100980 100
2007-03-30 07:48:19 51°14.16 2°55.385 4.8 349 7 100980 100
2007-03-30 07:48:24 51°14.171 2°55.374 4.3 -999 7 100980 100
2007-03-30 07:48:29 51°14.182 2°55.363 4.4 354 7 100980 100
2007-03-30 07:48:34 51°14.194 2°55.351 4.2 348 7 100980 100
2007-03-30 07:48:38 51°14.202 2°55.341 3.9 350 7 100980 100
2007-03-30 07:48:43 51°14.214 2°55.328 4 350 7 100980 100
2007-03-30 07:48:48 51°14.224 2°55.315 4 281 7.1 100980 100
2007-03-30 07:48:53 51°14.235 2°55.301 3.9 351 7.1 100980 100
2007-03-30 07:48:58 51°14.245 2°55.287 4.4 357 7.1 100980 100
2007-03-30 07:49:03 51°14.255 2°55.272 3.9 -999 7.1 100980 100
2007-03-30 07:49:08 51°14.264 2°55.256 4.1 357 7 100980 100
2007-03-30 07:49:13 51°14.273 2°55.24 4.1 350 7 100980 100
2007-03-30 07:49:18 51°14.282 2°55.223 3.9 280 7.1 100980 100
2007-03-30 07:49:23 51°14.291 2°55.206 5 353 7.1 100980 100
2007-03-30 07:49:28 51°14.301 2°55.188 4.6 356 7.1 100980 100
2007-03-30 07:49:33 51°14.31 2°55.17 5 354 7.1 100980 100
2007-03-30 07:49:38 51°14.32 2°55.151 4.4 345 7.1 100980 100
2007-03-30 07:49:43 51°14.33 2°55.132 4.6 351 7.1 100980 100
2007-03-30 07:49:47 51°14.338 2°55.117 4.5 358 7.1 100980 100
2007-03-30 07:49:53 51°14.35 2°55.093 4.6 345 7.1 100980 100
2007-03-30 07:49:57 51°14.357 2°55.076 3.7 279 7 100980 100
2007-03-30 07:50:03 51°14.369 2°55.051 4.2 353 7 100980 100
2007-03-30 07:50:08 51°14.378 2°55.029 4.6 354 7 100970 100
2007-03-30 07:50:13 51°14.386 2°55.006 4 354 7 100970 100
2007-03-30 07:50:17 51°14.393 2°54.987 4 355 7 100980 100
2007-03-30 07:50:23 51°14.403 2°54.957 4.5 356 7 100980 100
2007-03-30 07:50:28 51°14.411 2°54.933 4.5 357 7 100980 100
2007-03-30 07:50:33 51°14.42 2°54.907 4.5 360 7 100980 100
2007-03-30 07:50:38 51°14.429 2°54.882 4 2 7.1 100980 100
2007-03-30 07:50:43 51°14.438 2°54.856 4.1 358 7.1 100980 100
2007-03-30 07:50:48 51°14.446 2°54.829 4 349 7.1 100980 100
2007-03-30 07:50:53 51°14.454 2°54.802 3.9 347 7.1 100980 100
2007-03-30 07:50:57 51°14.46 2°54.78 3.8 350 7.1 100970 100
2007-03-30 07:51:03 51°14.467 2°54.747 3.6 349 7.1 100970 100
2007-03-30 07:51:08 51°14.474 2°54.718 3.8 347 7.1 100980 100
2007-03-30 07:51:13 51°14.48 2°54.69 4 349 7.1 100980 100
2007-03-30 07:51:18 51°14.486 2°54.661 3.7 350 7.1 100970 100
2007-03-30 07:51:23 51°14.493 2°54.633 4.1 344 7.1 100970 100
2007-03-30 07:51:27 51°14.498 2°54.61 4.4 356 7.1 100970 100
2007-03-30 07:51:33 51°14.508 2°54.577 4.1 357 7.1 100970 100
2007-03-30 07:51:38 51°14.516 2°54.549 5 352 7.1 100980 100
2007-03-30 07:51:43 51°14.526 2°54.523 5.4 353 7.1 100980 100
2007-03-30 07:51:48 51°14.536 2°54.498 5.9 356 7.1 100980 100
2007-03-30 07:51:53 51°14.548 2°54.474 6.5 356 7.1 100980 100
2007-03-30 07:51:58 51°14.56 2°54.452 6 355 7.1 100980 100
2007-03-30 07:52:03 51°14.573 2°54.429 6.1 353 7.1 100980 100
2007-03-30 07:52:08 51°14.586 2°54.407 6.5 353 7.1 100980 100
2007-03-30 07:52:13 51°14.598 2°54.384 6.5 356 7.1 100980 100
2007-03-30 07:52:18 51°14.612 2°54.364 6.4 355 7.1 100970 100
2007-03-30 07:52:23 51°14.626 2°54.344 7.3 355 7.1 100970 100
2007-03-30 07:52:28 51°14.641 2°54.325 7.3 355 7.2 100970 100
2007-03-30 07:52:33 51°14.656 2°54.308 7.2 354 7.2 100970 100
2007-03-30 07:52:38 51°14.672 2°54.294 7.7 351 7.1 100970 100
2007-03-30 07:52:43 51°14.689 2°54.28 8.5 353 7.1 100970 100
2007-03-30 07:52:48 51°14.705 2°54.268 7.9 352 7.1 100970 100
2007-03-30 07:52:53 51°14.722 2°54.255 7.9 353 7.1 100970 100
2007-03-30 07:52:57 51°14.735 2°54.245 8.4 353 7.2 100970 100
2007-03-30 07:53:03 51°14.755 2°54.229 8.2 351 7.2 100970 100
2007-03-30 07:53:08 51°14.772 2°54.215 8.1 352 7.2 100970 100
2007-03-30 07:53:13 51°14.788 2°54.201 8.4 354 7.2 100970 100
2007-03-30 07:53:18 51°14.805 2°54.188 8.6 354 7.2 100970 100
2007-03-30 07:53:22 51°14.818 2°54.176 8.4 354 7.2 100970 100
2007-03-30 07:53:27 51°14.834 2°54.162 7.4 353 7.2 100960 100
2007-03-30 07:53:33 51°14.853 2°54.145 7.5 353 7.2 100960 100
2007-03-30 07:53:38 51°14.87 2°54.132 8 352 7.2 100970 100
2007-03-30 07:53:43 51°14.886 2°54.118 8.2 354 7.2 100970 100
2007-03-30 07:53:48 51°14.903 2°54.105 7.8 355 7.2 100970 100
2007-03-30 07:53:53 51°14.919 2°54.092 7.6 352 7.2 100970 100
2007-03-30 07:53:58 51°14.936 2°54.079 8.1 354 7.2 100970 100
2007-03-30 07:54:03 51°14.953 2°54.066 8.5 353 7.2 100970 100
2007-03-30 07:54:08 51°14.969 2°54.053 8.4 353 7.2 100960 100
2007-03-30 07:54:13 51°14.986 2°54.04 8.6 355 7.2 100960 100
2007-03-30 07:54:18 51°15.002 2°54.026 8.7 352 7.2 100960 100
2007-03-30 07:54:23 51°15.019 2°54.013 8.7 351 7.2 100960 100
2007-03-30 07:54:28 51°15.036 2°53.999 8.9 354 7.2 100960 100
2007-03-30 07:54:33 51°15.052 2°53.985 8.3 353 7.2 100960 100
2007-03-30 07:54:37 51°15.065 2°53.975 8.6 356 7.2 100960 100
2007-03-30 07:54:43 51°15.085 2°53.958 8.8 353 7.2 100960 100
2007-03-30 07:54:48 51°15.102 2°53.945 8.6 352 7.2 100960 100
2007-03-30 07:54:53 51°15.119 2°53.931 8.4 356 7.2 100960 100
2007-03-30 07:54:57 51°15.132 2°53.921 8.2 356 7.2 100960 100
2007-03-30 07:55:03 51°15.152 2°53.905 8.8 354 7.2 100960 100
2007-03-30 07:55:08 51°15.168 2°53.892 8.5 356 7.2 100960 100
2007-03-30 07:55:13 51°15.185 2°53.878 8.7 354 7.2 100960 100
2007-03-30 07:55:17 51°15.199 2°53.868 8.5 354 7.2 100960 100
2007-03-30 07:55:23 51°15.219 2°53.853 7.6 353 7.2 100960 100
2007-03-30 07:55:28 51°15.236 2°53.839 8.3 353 7.2 100960 100
2007-03-30 07:55:33 51°15.252 2°53.826 8.5 355 7.2 100960 100
2007-03-30 07:55:38 51°15.269 2°53.812 8.3 352 7.2 100960 100
2007-03-30 07:55:42 51°15.282 2°53.801 8.4 355 7.2 100960 100
2007-03-30 07:55:48 51°15.302 2°53.785 8.5 355 7.2 100960 100
2007-03-30 07:55:53 51°15.319 2°53.771 8.1 353 7.3 100970 100
2007-03-30 07:55:58 51°15.336 2°53.757 8 351 7.3 100970 100
2007-03-30 07:56:02 51°15.349 2°53.746 8.4 352 7.3 100970 100
2007-03-30 07:56:07 51°15.366 2°53.732 8.1 355 7.3 100970 100
2007-03-30 07:56:12 51°15.382 2°53.718 8.1 354 7.3 100960 100
2007-03-30 07:56:18 51°15.402 2°53.701 8.2 353 7.3 100960 100
2007-03-30 07:56:23 51°15.419 2°53.687 8 354 7.3 100970 100
2007-03-30 07:56:28 51°15.435 2°53.673 7.7 352 7.3 100970 100
2007-03-30 07:56:33 51°15.452 2°53.658 7.8 354 7.3 100960 100
2007-03-30 07:56:38 51°15.468 2°53.645 7.8 353 7.3 100960 100
2007-03-30 07:56:43 51°15.485 2°53.631 7.9 352 7.3 100970 100
2007-03-30 07:56:48 51°15.502 2°53.618 9.1 353 7.3 100970 100
2007-03-30 07:56:52 51°15.515 2°53.607 8.8 351 7.3 100970 100
2007-03-30 07:56:57 51°15.532 2°53.593 8.6 354 7.3 100970 100
2007-03-30 07:57:03 51°15.552 2°53.577 9.1 352 7.3 100970 100
2007-03-30 07:57:08 51°15.568 2°53.564 8.8 352 7.3 100970 100
2007-03-30 07:57:12 51°15.582 2°53.554 9.6 353 7.4 100960 100
2007-03-30 07:57:17 51°15.598 2°53.54 9.5 355 7.4 100960 100
2007-03-30 07:57:23 51°15.618 2°53.524 9.2 356 7.4 100960 100
2007-03-30 07:57:28 51°15.635 2°53.511 9.2 356 7.4 100960 100
2007-03-30 07:57:33 51°15.652 2°53.497 8.8 355 7.4 100960 100
2007-03-30 07:57:37 51°15.665 2°53.487 8.7 356 7.4 100960 100
2007-03-30 07:57:43 51°15.685 2°53.471 8.9 355 7.4 100960 100
2007-03-30 07:57:48 51°15.702 2°53.458 8.7 355 7.4 100960 100
2007-03-30 07:57:53 51°15.719 2°53.445 9.3 355 7.4 100960 100
2007-03-30 07:57:58 51°15.735 2°53.432 8.6 353 7.4 100960 100
2007-03-30 07:58:02 51°15.749 2°53.422 8.8 355 7.4 100960 100
2007-03-30 07:58:08 51°15.769 2°53.406 9.2 354 7.4 100960 100
2007-03-30 07:58:13 51°15.786 2°53.392 9.3 354 7.4 100960 100
2007-03-30 07:58:17 51°15.799 2°53.382 9.3 355 7.4 100960 100
2007-03-30 07:58:23 51°15.819 2°53.365 9.7 356 7.4 100960 100
2007-03-30 07:58:28 51°15.836 2°53.352 9.7 356 7.4 100960 100
2007-03-30 07:58:33 51°15.852 2°53.338 9.5 356 7.4 100960 100
2007-03-30 07:58:38 51°15.869 2°53.325 9.2 355 7.4 100960 100
2007-03-30 07:58:43 51°15.885 2°53.311 9.6 356 7.4 100960 100
2007-03-30 07:58:48 51°15.902 2°53.298 9.4 357 7.4 100960 100
2007-03-30 07:58:53 51°15.918 2°53.285 8.9 354 7.4 100960 100
2007-03-30 07:58:58 51°15.935 2°53.272 8.9 356 7.4 100960 100
2007-03-30 07:59:03 51°15.952 2°53.259 9.7 355 7.4 100960 100
2007-03-30 07:59:08 51°15.968 2°53.246 9.3 354 7.4 100960 100
2007-03-30 07:59:13 51°15.985 2°53.232 9.4 357 7.4 100960 100
2007-03-30 07:59:17 51°15.998 2°53.222 9 352 7.4 100960 100
2007-03-30 07:59:22 51°16.014 2°53.208 8.5 355 7.4 100960 100
2007-03-30 07:59:28 51°16.034 2°53.193 9.1 354 7.4 100960 100
2007-03-30 07:59:33 51°16.051 2°53.18 9.5 353 7.4 100960 100
2007-03-30 07:59:38 51°16.067 2°53.167 9.5 354 7.4 100960 100
2007-03-30 07:59:43 51°16.084 2°53.155 8.9 353 7.4 100960 100
2007-03-30 07:59:48 51°16.1 2°53.142 8.8 355 7.4 100960 100
2007-03-30 07:59:53 51°16.117 2°53.129 9.1 354 7.4 100960 100
2007-03-30 07:59:58 51°16.134 2°53.117 9 352 7.4 100960 100
2007-03-30 08:00:03 51°16.15 2°53.104 9.4 354 7.5 100960 100
2007-03-30 08:00:08 51°16.167 2°53.092 9.7 355 7.5 100960 100
2007-03-30 08:00:13 51°16.183 2°53.079 9.4 354 7.5 100960 100
2007-03-30 08:00:18 51°16.2 2°53.066 9.5 -999 7.5 100960 100
2007-03-30 08:00:22 51°16.213 2°53.056 9.6 356 7.5 100960 100
2007-03-30 08:00:28 51°16.233 2°53.041 9.7 357 7.5 100960 100
2007-03-30 08:00:33 51°16.25 2°53.029 9.8 357 7.5 100960 100
2007-03-30 08:00:38 51°16.266 2°53.016 9.4 355 7.5 100960 100
2007-03-30 08:00:43 51°16.283 2°53.003 9.4 356 7.5 100960 100
2007-03-30 08:00:48 51°16.299 2°52.991 10.1 355 7.5 100960 100
2007-03-30 08:00:53 51°16.316 2°52.978 10 356 7.5 100960 100
2007-03-30 08:00:58 51°16.332 2°52.965 9.7 357 7.5 100960 100
2007-03-30 08:01:03 51°16.349 2°52.953 8.5 353 7.5 100960 100
2007-03-30 08:01:08 51°16.366 2°52.94 9.6 355 7.5 100960 100
2007-03-30 08:01:13 51°16.382 2°52.928 10 357 7.4 100960 100
2007-03-30 08:01:18 51°16.399 2°52.915 9.3 353 7.4 100960 100
2007-03-30 08:01:22 51°16.412 2°52.905 9.8 356 7.5 100960 100
2007-03-30 08:01:28 51°16.432 2°52.89 9.1 355 7.5 100960 100
2007-03-30 08:01:32 51°16.445 2°52.881 8.8 357 7.5 100960 100
2007-03-30 08:01:38 51°16.465 2°52.865 9.9 357 7.5 100960 100
2007-03-30 08:01:43 51°16.482 2°52.853 9.4 357 7.4 100960 100
2007-03-30 08:01:48 51°16.498 2°52.84 9.6 356 7.4 100960 100
2007-03-30 08:01:53 51°16.515 2°52.828 9.6 355 7.5 100970 100
2007-03-30 08:01:57 51°16.529 2°52.818 9.7 357 7.5 100970 100
2007-03-30 08:02:03 51°16.549 2°52.804 9.3 354 7.5 100960 100
2007-03-30 08:02:08 51°16.566 2°52.792 9.5 355 7.5 100960 100
2007-03-30 08:02:13 51°16.583 2°52.781 9 356 7.5 100960 100
2007-03-30 08:02:18 51°16.599 2°52.769 9.2 -999 7.5 100960 100
2007-03-30 08:02:22 51°16.613 2°52.76 9.1 352 7.5 100960 100
2007-03-30 08:02:28 51°16.633 2°52.746 9.3 356 7.5 100960 100
2007-03-30 08:02:33 51°16.65 2°52.734 9.1 354 7.5 100960 100
2007-03-30 08:02:37 51°16.663 2°52.724 9.4 353 7.5 100960 100
2007-03-30 08:02:43 51°16.683 2°52.711 9.2 356 7.5 100960 100
2007-03-30 08:02:48 51°16.7 2°52.699 9.7 355 7.5 100960 100
2007-03-30 08:02:52 51°16.713 2°52.69 9.6 355 7.5 100960 100
2007-03-30 08:02:58 51°16.733 2°52.676 9.8 354 7.5 100960 100
2007-03-30 08:03:03 51°16.75 2°52.664 9.1 352 7.5 100960 100
2007-03-30 08:03:08 51°16.766 2°52.653 9.4 356 7.5 100960 100
2007-03-30 08:03:13 51°16.783 2°52.641 9.6 356 7.5 100960 100
2007-03-30 08:03:18 51°16.8 2°52.63 9.6 354 7.5 100960 100
2007-03-30 08:03:23 51°16.816 2°52.619 9.4 356 7.5 100960 100
2007-03-30 08:03:28 51°16.833 2°52.607 9.7 356 7.5 100960 100
2007-03-30 08:03:33 51°16.85 2°52.596 9.5 356 7.5 100970 100
2007-03-30 08:03:37 51°16.863 2°52.586 9.2 355 7.5 100970 100
2007-03-30 08:03:42 51°16.879 2°52.574 9.8 355 7.5 100970 100
2007-03-30 08:03:48 51°16.899 2°52.56 10 356 7.5 100970 100
2007-03-30 08:03:53 51°16.916 2°52.548 9.4 354 7.5 100960 100
2007-03-30 08:03:58 51°16.932 2°52.537 9.9 356 7.5 100960 100
2007-03-30 08:04:03 51°16.949 2°52.525 9.3 357 7.5 100970 100
2007-03-30 08:04:08 51°16.966 2°52.513 9.6 358 7.5 100970 100
2007-03-30 08:04:13 51°16.982 2°52.501 8.5 355 7.5 100960 100
2007-03-30 08:04:18 51°16.999 2°52.49 9 -999 7.5 100960 100
2007-03-30 08:04:23 51°17.015 2°52.478 9.7 354 7.5 100960 100
2007-03-30 08:04:28 51°17.032 2°52.467 9.3 355 7.5 100960 100
2007-03-30 08:04:33 51°17.049 2°52.455 9.4 356 7.5 100960 100
2007-03-30 08:04:38 51°17.065 2°52.443 9.1 356 7.5 100960 100
2007-03-30 08:04:42 51°17.078 2°52.434 9.2 355 7.5 100960 100
2007-03-30 08:04:48 51°17.098 2°52.419 8.7 357 7.5 100960 100
2007-03-30 08:04:53 51°17.115 2°52.407 9.2 356 7.5 100970 100
2007-03-30 08:04:58 51°17.131 2°52.395 8.8 354 7.5 100970 100
2007-03-30 08:05:03 51°17.148 2°52.384 9 353 7.5 100970 100
2007-03-30 08:05:08 51°17.164 2°52.372 9.9 356 7.5 100970 100
2007-03-30 08:05:12 51°17.178 2°52.363 9.6 353 7.5 100970 100
2007-03-30 08:05:18 51°17.198 2°52.349 9.1 354 7.5 100970 100
2007-03-30 08:05:23 51°17.214 2°52.337 9.5 355 7.6 100970 100
2007-03-30 08:05:28 51°17.231 2°52.325 9.6 355 7.6 100970 100
2007-03-30 08:05:33 51°17.248 2°52.313 9.2 355 7.6 100970 100
2007-03-30 08:05:38 51°17.264 2°52.301 9.4 357 7.6 100970 100
2007-03-30 08:05:43 51°17.281 2°52.289 8.9 351 7.6 100960 100
2007-03-30 08:05:48 51°17.298 2°52.277 10.1 356 7.6 100960 100
2007-03-30 08:05:53 51°17.314 2°52.265 9.5 354 7.5 100960 100
2007-03-30 08:05:57 51°17.327 2°52.255 9.7 354 7.5 100960 100
2007-03-30 08:06:03 51°17.347 2°52.241 9.8 353 7.5 100960 100
2007-03-30 08:06:08 51°17.364 2°52.229 9.8 355 7.5 100960 100
2007-03-30 08:06:12 51°17.377 2°52.22 9.8 354 7.5 100970 100
2007-03-30 08:06:17 51°17.394 2°52.208 9.9 -999 7.5 100970 100
2007-03-30 08:06:23 51°17.414 2°52.194 9.5 356 7.5 100960 100
2007-03-30 08:06:28 51°17.43 2°52.182 10 355 7.5 100960 100
2007-03-30 08:06:33 51°17.447 2°52.17 10.1 356 7.5 100970 100
2007-03-30 08:06:37 51°17.46 2°52.161 9.6 355 7.5 100970 100
2007-03-30 08:06:43 51°17.48 2°52.146 9.7 357 7.6 100970 100
2007-03-30 08:06:48 51°17.496 2°52.134 9 355 7.6 100970 100
2007-03-30 08:06:53 51°17.513 2°52.123 9.9 353 7.6 100970 100
2007-03-30 08:06:58 51°17.529 2°52.111 10.3 356 7.6 100970 100
2007-03-30 08:07:03 51°17.546 2°52.099 9.7 355 7.6 100970 100
2007-03-30 08:07:08 51°17.562 2°52.087 9.3 356 7.6 100970 100
2007-03-30 08:07:13 51°17.579 2°52.075 8.9 355 7.5 100970 100
2007-03-30 08:07:18 51°17.595 2°52.061 9.5 355 7.5 100970 100
2007-03-30 08:07:22 51°17.607 2°52.051 9.1 354 7.5 100960 100
2007-03-30 08:07:28 51°17.626 2°52.034 9.2 356 7.5 100960 100
2007-03-30 08:07:33 51°17.642 2°52.02 9 356 7.6 100960 100
2007-03-30 08:07:38 51°17.658 2°52.005 8.8 354 7.6 100960 100
2007-03-30 08:07:42 51°17.671 2°51.994 9.1 354 7.6 100970 100
2007-03-30 08:07:48 51°17.69 2°51.976 9.5 356 7.6 100970 100
2007-03-30 08:07:53 51°17.705 2°51.962 9.6 355 7.6 100970 100
2007-03-30 08:07:58 51°17.721 2°51.947 9.5 355 7.6 100970 100
2007-03-30 08:08:03 51°17.736 2°51.931 9.5 355 7.6 100970 100
2007-03-30 08:08:08 51°17.752 2°51.916 9.8 353 7.6 100970 100
2007-03-30 08:08:13 51°17.767 2°51.902 9.8 355 7.6 100970 100
2007-03-30 08:08:17 51°17.78 2°51.89 10 -999 7.6 100970 100
2007-03-30 08:08:23 51°17.799 2°51.872 9.4 354 7.6 100960 100
2007-03-30 08:08:28 51°17.815 2°51.858 9.7 357 7.6 100960 100
2007-03-30 08:08:32 51°17.828 2°51.847 9.5 354 7.6 100970 100
2007-03-30 08:08:38 51°17.847 2°51.83 9.1 356 7.6 100970 100
2007-03-30 08:08:43 51°17.862 2°51.815 8.9 355 7.6 100970 100
2007-03-30 08:08:48 51°17.877 2°51.798 8.8 358 7.6 100970 100
2007-03-30 08:08:53 51°17.892 2°51.781 8.3 357 7.6 100970 100
2007-03-30 08:08:57 51°17.904 2°51.766 8.7 357 7.6 100970 100
2007-03-30 08:09:03 51°17.921 2°51.744 8.8 358 7.6 100960 100
2007-03-30 08:09:08 51°17.935 2°51.725 9.1 359 7.6 100960 100
2007-03-30 08:09:13 51°17.949 2°51.706 7.7 359 7.6 100970 100
2007-03-30 08:09:18 51°17.963 2°51.686 8.6 358 7.6 100970 100
2007-03-30 08:09:23 51°17.977 2°51.666 8 358 7.6 100970 100
2007-03-30 08:09:28 51°17.99 2°51.646 9.1 358 7.6 100970 100
2007-03-30 08:09:33 51°18.005 2°51.626 8.2 356 7.6 100970 100
2007-03-30 08:09:38 51°18.018 2°51.606 8.8 356 7.6 100970 100
2007-03-30 08:09:43 51°18.032 2°51.587 8.6 358 7.6 100970 100
2007-03-30 08:09:48 51°18.046 2°51.567 8.7 -999 7.6 100970 100
2007-03-30 08:09:52 51°18.058 2°51.551 7.8 358 7.6 100960 100
2007-03-30 08:09:57 51°18.072 2°51.531 8.9 358 7.6 100960 100
2007-03-30 08:10:03 51°18.089 2°51.507 8.8 358 7.6 100970 100
2007-03-30 08:10:08 51°18.103 2°51.488 8.9 356 7.6 100970 100
2007-03-30 08:10:12 51°18.114 2°51.472 9 357 7.6 100970 100
2007-03-30 08:10:17 51°18.128 2°51.452 9.2 -999 7.6 100970 100
2007-03-30 08:10:23 51°18.145 2°51.428 8.6 359 7.6 100970 100
2007-03-30 08:10:28 51°18.159 2°51.408 9.1 357 7.6 100970 100
2007-03-30 08:10:33 51°18.173 2°51.389 8.3 358 7.6 100970 100
2007-03-30 08:10:37 51°18.184 2°51.372 8.6 359 7.6 100970 100
2007-03-30 08:10:43 51°18.201 2°51.349 8.1 355 7.6 100960 100
2007-03-30 08:10:48 51°18.215 2°51.329 8 2 7.6 100960 100
2007-03-30 08:10:53 51°18.23 2°51.309 8.4 356 7.6 100960 100
2007-03-30 08:10:58 51°18.243 2°51.289 9 357 7.6 100960 100
2007-03-30 08:11:02 51°18.255 2°51.273 8.9 358 7.6 100970 100
2007-03-30 08:11:08 51°18.272 2°51.249 9.2 358 7.6 100970 100
2007-03-30 08:11:13 51°18.286 2°51.229 8.7 355 7.5 100970 100
2007-03-30 08:11:18 51°18.3 2°51.209 8.7 356 7.5 100970 100
2007-03-30 08:11:22 51°18.311 2°51.193 8.3 359 7.6 100970 100
2007-03-30 08:11:27 51°18.325 2°51.173 8.2 355 7.6 100970 100
2007-03-30 08:11:33 51°18.342 2°51.149 8.6 358 7.6 100970 100
2007-03-30 08:11:38 51°18.356 2°51.129 8.4 358 7.6 100970 100
2007-03-30 08:11:43 51°18.37 2°51.109 8.7 356 7.6 100970 100
2007-03-30 08:11:48 51°18.384 2°51.089 8.8 358 7.6 100970 100
2007-03-30 08:11:53 51°18.398 2°51.069 9.3 358 7.6 100970 100
2007-03-30 08:11:58 51°18.412 2°51.049 9.1 358 7.6 100970 100
2007-03-30 08:12:03 51°18.426 2°51.028 8.4 359 7.6 100970 100
2007-03-30 08:12:08 51°18.441 2°51.008 8.7 357 7.6 100970 100
2007-03-30 08:12:12 51°18.452 2°50.992 8.5 359 7.6 100970 100
2007-03-30 08:12:18 51°18.469 2°50.968 9.1 -999 7.6 100970 100
2007-03-30 08:12:23 51°18.483 2°50.948 9 358 7.6 100960 100
2007-03-30 08:12:28 51°18.498 2°50.928 8.9 359 7.6 100960 100
2007-03-30 08:12:32 51°18.509 2°50.912 8.6 357 7.6 100970 100
2007-03-30 08:12:38 51°18.526 2°50.888 8.3 358 7.6 100970 100
2007-03-30 08:12:43 51°18.54 2°50.868 8.3 357 7.6 100970 100
2007-03-30 08:12:48 51°18.554 2°50.848 8.5 356 7.6 100970 100
2007-03-30 08:12:53 51°18.568 2°50.828 9.2 355 7.6 100970 100
2007-03-30 08:12:57 51°18.58 2°50.813 9.1 357 7.6 100970 100
2007-03-30 08:13:03 51°18.597 2°50.788 8.8 357 7.6 100970 100
2007-03-30 08:13:08 51°18.611 2°50.769 8.9 354 7.6 100970 100
2007-03-30 08:13:13 51°18.625 2°50.749 8.6 358 7.5 100970 100
2007-03-30 08:13:17 51°18.636 2°50.733 8.9 -999 7.5 100970 100
2007-03-30 08:13:22 51°18.65 2°50.713 8.6 -999 7.6 100970 100
2007-03-30 08:13:28 51°18.666 2°50.69 8.5 359 7.6 100970 100
2007-03-30 08:13:33 51°18.679 2°50.672 8.5 359 7.6 100970 100
2007-03-30 08:13:37 51°18.689 2°50.659 8 1 7.6 100970 100
2007-03-30 08:13:43 51°18.703 2°50.639 8.1 -999 7.6 100970 100
2007-03-30 08:13:48 51°18.715 2°50.624 7.5 1 7.6 100970 100
2007-03-30 08:13:53 51°18.726 2°50.609 7.4 3 7.6 100970 100
2007-03-30 08:13:57 51°18.735 2°50.598 7.1 1 7.6 100970 100
2007-03-30 08:14:03 51°18.749 2°50.582 8.1 2 7.6 100970 100
2007-03-30 08:14:08 51°18.76 2°50.569 7.2 2 7.6 100970 100
2007-03-30 08:14:13 51°18.771 2°50.556 6.7 4 7.5 100980 100
2007-03-30 08:14:18 51°18.781 2°50.544 6.8 -999 7.5 100980 100
2007-03-30 08:14:22 51°18.788 2°50.533 6.2 10 7.5 100970 100
2007-03-30 08:14:28 51°18.797 2°50.513 5.8 12 7.5 100970 100
2007-03-30 08:14:33 51°18.803 2°50.496 5.6 9 7.5 100970 100
2007-03-30 08:14:38 51°18.808 2°50.478 4.9 19 7.5 100970 100
2007-03-30 08:14:42 51°18.812 2°50.463 4.2 21 7.6 100970 100
2007-03-30 08:14:48 51°18.815 2°50.44 3.7 19 7.6 100970 100
2007-03-30 08:14:53 51°18.818 2°50.42 3.8 27 7.5 100980 100
2007-03-30 08:14:58 51°18.82 2°50.4 3.7 26 7.5 100980 100
2007-03-30 08:15:02 51°18.821 2°50.384 3.7 24 7.5 100980 100
2007-03-30 08:15:08 51°18.823 2°50.36 4.2 23 7.5 100980 100
2007-03-30 08:15:13 51°18.825 2°50.339 3.3 31 7.5 100980 100
2007-03-30 08:15:18 51°18.826 2°50.318 3.6 28 7.5 100980 100
2007-03-30 08:15:23 51°18.828 2°50.298 4 26 7.5 100990 100
2007-03-30 08:15:28 51°18.83 2°50.277 3.8 24 7.5 100990 100
2007-03-30 08:15:33 51°18.832 2°50.257 3.5 22 7.5 100980 100
2007-03-30 08:15:37 51°18.834 2°50.24 4.3 21 7.5 100980 100
2007-03-30 08:15:42 51°18.836 2°50.219 4.1 21 7.6 100990 100
2007-03-30 08:15:48 51°18.839 2°50.195 4.2 23 7.6 100990 100
2007-03-30 08:15:53 51°18.842 2°50.174 4.1 26 7.5 100980 100
2007-03-30 08:15:58 51°18.845 2°50.154 4.1 26 7.5 100980 100
2007-03-30 08:16:02 51°18.848 2°50.137 4.2 22 7.5 100980 100
2007-03-30 08:16:08 51°18.852 2°50.113 4.4 20 7.5 100980 100
2007-03-30 08:16:13 51°18.856 2°50.093 4.1 20 7.5 100990 100
2007-03-30 08:16:17 51°18.859 2°50.077 4.2 18 7.5 100990 100
2007-03-30 08:16:23 51°18.864 2°50.054 4.3 17 7.5 100990 100
2007-03-30 08:16:28 51°18.869 2°50.034 4.4 20 7.5 100990 100
2007-03-30 08:16:33 51°18.873 2°50.016 4.5 22 7.5 100980 100
2007-03-30 08:16:38 51°18.877 2°49.999 3.9 19 7.5 100980 100
2007-03-30 08:16:43 51°18.88 2°49.982 3.1 32 7.5 100990 100
2007-03-30 08:16:48 51°18.881 2°49.965 3 37 7.5 100990 100
2007-03-30 08:16:53 51°18.881 2°49.95 3 39 7.5 100990 100
2007-03-30 08:16:58 51°18.881 2°49.935 2.7 80 7.5 100990 100
2007-03-30 08:17:03 51°18.879 2°49.921 2.7 24 7.5 100980 100
2007-03-30 08:17:08 51°18.878 2°49.908 3.1 77 7.5 100980 100
2007-03-30 08:17:12 51°18.876 2°49.898 3.5 19 7.5 100990 100
2007-03-30 08:17:17 51°18.874 2°49.887 3.9 77 7.5 100990 100
2007-03-30 08:17:23 51°18.871 2°49.873 3.6 24 7.5 100990 100
2007-03-30 08:17:28 51°18.869 2°49.863 3.2 79 7.5 100990 100
2007-03-30 08:17:33 51°18.866 2°49.853 2.9 22 7.5 100990 100
2007-03-30 08:17:37 51°18.864 2°49.845 2 80 7.5 100990 100
2007-03-30 08:17:43 51°18.861 2°49.834 3.1 19 7.5 100990 100
2007-03-30 08:17:48 51°18.859 2°49.825 3.5 80 7.5 100990 100
2007-03-30 08:17:53 51°18.857 2°49.817 3.4 37 7.6 100990 100
2007-03-30 08:17:57 51°18.856 2°49.811 2.6 79 7.6 100990 100
2007-03-30 08:18:02 51°18.855 2°49.805 5.2 25 7.7 100990 100
2007-03-30 08:18:08 51°18.853 2°49.797 5.3 75 7.7 100990 100
2007-03-30 08:18:13 51°18.852 2°49.792 5.5 26 7.7 100990 100
2007-03-30 08:18:18 51°18.851 2°49.788 5.9 -999 7.7 100990 100
2007-03-30 08:18:22 51°18.851 2°49.785 6.8 25 7.8 100990 100
2007-03-30 08:18:28 51°18.85 2°49.782 5.8 80 7.8 100990 100
2007-03-30 08:18:33 51°18.849 2°49.78 7.3 21 7.7 100990 100
2007-03-30 08:18:38 51°18.848 2°49.779 7.5 74 7.7 100990 100
2007-03-30 08:18:42 51°18.847 2°49.779 7.9 20 7.7 100990 100
2007-03-30 08:18:47 51°18.846 2°49.779 7.9 81 7.7 100990 100
2007-03-30 08:18:53 51°18.845 2°49.778 7.7 22 7.7 100990 100
2007-03-30 08:18:58 51°18.843 2°49.778 8 44 7.7 100990 100
2007-03-30 08:19:03 51°18.842 2°49.777 7 44 7.6 100990 100
2007-03-30 08:19:08 51°18.842 2°49.777 8 77 7.6 100990 100
2007-03-30 08:19:13 51°18.84 2°49.776 7.9 43 7.6 100990 100
2007-03-30 08:19:18 51°18.839 2°49.776 7 -999 7.6 100990 100
2007-03-30 08:19:23 51°18.838 2°49.775 7.5 44 7.6 100980 100
2007-03-30 08:19:28 51°18.837 2°49.774 7 43 7.6 100980 100
2007-03-30 08:19:32 51°18.836 2°49.773 8.5 44 7.6 100980 100
2007-03-30 08:19:37 51°18.835 2°49.773 8.2 43 7.6 100980 100
2007-03-30 08:19:43 51°18.834 2°49.771 7.5 43 7.6 100980 100
2007-03-30 08:19:48 51°18.833 2°49.77 8.3 80 7.6 100980 100
2007-03-30 08:19:53 51°18.832 2°49.769 6.9 44 7.6 100980 100
2007-03-30 08:19:57 51°18.831 2°49.768 7.1 44 7.6 100980 100
2007-03-30 08:20:03 51°18.83 2°49.767 7.7 42 7.6 100980 100
2007-03-30 08:20:08 51°18.828 2°49.766 7.6 42 7.6 100980 100
2007-03-30 08:20:13 51°18.827 2°49.764 7.6 42 7.6 100980 100
2007-03-30 08:20:17 51°18.826 2°49.763 7.3 41 7.6 100980 100
2007-03-30 08:20:23 51°18.825 2°49.761 6.3 40 7.6 100980 100
2007-03-30 08:20:28 51°18.824 2°49.76 6.6 40 7.6 100980 100
2007-03-30 08:20:33 51°18.823 2°49.758 7.2 40 7.5 100980 100
2007-03-30 08:20:38 51°18.822 2°49.757 6.4 41 7.5 100980 100
2007-03-30 08:20:42 51°18.821 2°49.755 6.9 40 7.6 100990 100
2007-03-30 08:20:48 51°18.82 2°49.754 6.2 37 7.6 100990 100
2007-03-30 08:20:53 51°18.819 2°49.752 7.4 38 7.6 100980 100
2007-03-30 08:20:57 51°18.819 2°49.751 6.1 36 7.6 100980 100
2007-03-30 08:21:03 51°18.817 2°49.749 6.7 37 7.6 100980 100
2007-03-30 08:21:08 51°18.816 2°49.747 6.4 35 7.6 100980 100
2007-03-30 08:21:12 51°18.815 2°49.745 6.5 38 7.6 100990 100
2007-03-30 08:21:18 51°18.814 2°49.743 6 -999 7.6 100990 100
2007-03-30 08:21:23 51°18.813 2°49.741 6.2 40 7.5 100980 100
2007-03-30 08:21:28 51°18.813 2°49.739 6.2 40 7.5 100980 100
2007-03-30 08:21:33 51°18.812 2°49.737 6.7 37 7.6 100980 100
2007-03-30 08:21:38 51°18.811 2°49.736 6.4 36 7.6 100980 100
2007-03-30 08:21:43 51°18.81 2°49.734 6.2 35 7.6 100990 100
2007-03-30 08:21:48 51°18.809 2°49.732 6.6 32 7.6 100990 100
2007-03-30 08:21:53 51°18.808 2°49.73 6.6 34 7.6 100980 100
2007-03-30 08:21:57 51°18.808 2°49.728 6.6 33 7.6 100980 100
2007-03-30 08:22:02 51°18.807 2°49.726 6.2 34 7.6 100990 100
2007-03-30 08:22:08 51°18.806 2°49.724 7.2 32 7.6 100990 100
2007-03-30 08:22:13 51°18.805 2°49.722 7 32 7.6 100980 100
2007-03-30 08:22:18 51°18.804 2°49.72 7.1 33 7.6 100980 100
2007-03-30 08:22:23 51°18.803 2°49.718 7.2 30 7.6 100980 100
2007-03-30 08:22:28 51°18.803 2°49.716 6.9 31 7.6 100980 100
2007-03-30 08:22:33 51°18.802 2°49.713 5.9 31 7.6 100980 100
2007-03-30 08:22:38 51°18.801 2°49.711 6.4 31 7.6 100980 100
2007-03-30 08:22:43 51°18.8 2°49.709 6.6 32 7.6 100980 100
2007-03-30 08:22:48 51°18.799 2°49.707 6.6 31 7.6 100980 100
2007-03-30 08:22:53 51°18.798 2°49.705 7.5 31 7.6 100980 100
2007-03-30 08:22:58 51°18.798 2°49.703 6.7 31 7.6 100980 100
2007-03-30 08:23:02 51°18.797 2°49.702 7.4 31 7.6 100990 100
2007-03-30 08:23:08 51°18.796 2°49.699 7.3 31 7.6 100990 100
2007-03-30 08:23:13 51°18.796 2°49.697 6.9 29 7.6 100980 100
2007-03-30 08:23:18 51°18.795 2°49.695 6.8 -999 7.6 100980 100
2007-03-30 08:23:23 51°18.795 2°49.693 6.8 31 7.6 100990 100
2007-03-30 08:23:28 51°18.794 2°49.691 6.6 30 7.6 100990 100
2007-03-30 08:23:33 51°18.793 2°49.689 6.8 29 7.5 100980 100
2007-03-30 08:23:38 51°18.793 2°49.687 6.3 29 7.5 100980 100
2007-03-30 08:23:43 51°18.793 2°49.686 6.5 29 7.5 100990 100
2007-03-30 08:23:48 51°18.792 2°49.684 6.5 25 7.5 100990 100
2007-03-30 08:23:53 51°18.792 2°49.682 7.4 27 7.5 100980 100
2007-03-30 08:23:57 51°18.792 2°49.68 8 28 7.5 100980 100
2007-03-30 08:24:03 51°18.791 2°49.677 7.6 27 7.6 100990 100
2007-03-30 08:24:08 51°18.79 2°49.675 7.4 25 7.6 100990 100
2007-03-30 08:24:13 51°18.789 2°49.673 7.4 24 7.6 100980 100
2007-03-30 08:24:17 51°18.789 2°49.671 6.5 27 7.6 100980 100
2007-03-30 08:24:23 51°18.788 2°49.669 7.5 25 7.5 100980 100
2007-03-30 08:24:28 51°18.787 2°49.667 8 26 7.5 100980 100
2007-03-30 08:24:32 51°18.787 2°49.665 7.7 25 7.5 100980 100
2007-03-30 08:24:37 51°18.786 2°49.663 7.3 25 7.5 100980 100
2007-03-30 08:24:43 51°18.786 2°49.66 7.1 25 7.5 100980 100
2007-03-30 08:24:48 51°18.785 2°49.658 7.4 26 7.5 100980 100
2007-03-30 08:24:53 51°18.785 2°49.657 7.1 23 7.5 100980 100
2007-03-30 08:24:57 51°18.784 2°49.655 7.5 23 7.5 100980 100
2007-03-30 08:25:03 51°18.784 2°49.653 7.2 25 7.5 100980 100
2007-03-30 08:25:08 51°18.783 2°49.651 7 24 7.5 100980 100
2007-03-30 08:25:13 51°18.783 2°49.649 7.2 25 7.5 100980 100
2007-03-30 08:25:18 51°18.783 2°49.646 7.2 -999 7.5 100980 100
2007-03-30 08:25:23 51°18.782 2°49.644 7 20 7.5 100980 100
2007-03-30 08:25:28 51°18.782 2°49.643 7.3 23 7.5 100980 100
2007-03-30 08:25:33 51°18.781 2°49.641 6.9 21 7.5 100990 100
2007-03-30 08:25:38 51°18.781 2°49.639 7.3 24 7.5 100990 100
2007-03-30 08:25:43 51°18.78 2°49.637 6.8 23 7.5 100980 100
2007-03-30 08:25:48 51°18.78 2°49.635 6.7 23 7.5 100980 100
2007-03-30 08:25:52 51°18.78 2°49.633 6.8 23 7.5 100980 100
2007-03-30 08:25:58 51°18.78 2°49.631 6.8 19 7.5 100980 100
2007-03-30 08:26:03 51°18.78 2°49.629 7.1 19 7.5 100990 100
2007-03-30 08:26:08 51°18.78 2°49.627 7.5 18 7.5 100990 100
2007-03-30 08:26:12 51°18.781 2°49.625 6.9 17 7.5 100980 100
2007-03-30 08:26:18 51°18.782 2°49.623 7.1 15 7.5 100980 100
2007-03-30 08:26:23 51°18.783 2°49.621 7.8 11 7.5 100980 100
2007-03-30 08:26:28 51°18.785 2°49.619 8.2 9 7.5 100980 100
2007-03-30 08:26:33 51°18.788 2°49.618 6.3 7 7.5 100980 100
2007-03-30 08:26:37 51°18.79 2°49.617 6.3 2 7.5 100980 100
2007-03-30 08:26:43 51°18.794 2°49.617 7.8 359 7.5 100980 100
2007-03-30 08:26:48 51°18.797 2°49.618 7.5 356 7.5 100980 100
2007-03-30 08:26:53 51°18.801 2°49.62 7.8 353 7.5 100980 100
2007-03-30 08:26:58 51°18.804 2°49.623 7.8 351 7.5 100980 100
2007-03-30 08:27:03 51°18.808 2°49.626 7.2 347 7.5 100980 100
2007-03-30 08:27:08 51°18.811 2°49.631 7.9 280 7.5 100980 100
2007-03-30 08:27:13 51°18.815 2°49.637 9.5 339 7.5 100980 100
2007-03-30 08:27:18 51°18.819 2°49.646 8.8 -999 7.5 100980 100
2007-03-30 08:27:22 51°18.822 2°49.653 9.3 337 7.5 100980 100
2007-03-30 08:27:28 51°18.827 2°49.666 9.5 280 7.5 100980 100
2007-03-30 08:27:33 51°18.832 2°49.677 9.6 340 7.5 100980 100
2007-03-30 08:27:38 51°18.838 2°49.689 9.5 281 7.5 100980 100
2007-03-30 08:27:43 51°18.844 2°49.701 10.5 342 7.5 100970 100
2007-03-30 08:27:48 51°18.851 2°49.713 10.7 279 7.5 100970 100
2007-03-30 08:27:53 51°18.858 2°49.725 10.6 340 7.6 100980 100
2007-03-30 08:27:58 51°18.866 2°49.739 11.5 278 7.6 100980 100
2007-03-30 08:28:03 51°18.874 2°49.753 11.3 338 7.5 100980 100
2007-03-30 08:28:08 51°18.883 2°49.768 11.9 282 7.5 100980 100
2007-03-30 08:28:12 51°18.89 2°49.781 11.8 338 7.5 100970 100
2007-03-30 08:28:18 51°18.901 2°49.802 12.8 278 7.5 100970 100
2007-03-30 08:28:23 51°18.911 2°49.82 12.4 338 7.5 100970 100
2007-03-30 08:28:28 51°18.921 2°49.839 13.1 278 7.5 100970 100
2007-03-30 08:28:32 51°18.929 2°49.855 13.7 339 7.5 100960 100
2007-03-30 08:28:38 51°18.941 2°49.879 13.5 283 7.5 100960 100
2007-03-30 08:28:43 51°18.952 2°49.899 12.9 338 7.5 100960 100
2007-03-30 08:28:48 51°18.963 2°49.92 13.3 279 7.5 100960 100
2007-03-30 08:28:53 51°18.974 2°49.941 13.3 338 7.5 100960 100
2007-03-30 08:28:57 51°18.983 2°49.957 13.3 284 7.5 100960 100
2007-03-30 08:29:03 51°18.996 2°49.983 13.1 339 7.5 100960 100
2007-03-30 08:29:08 51°19.007 2°50.004 12.8 287 7.5 100960 100
2007-03-30 08:29:13 51°19.019 2°50.025 13.1 338 7.5 100960 100
2007-03-30 08:29:18 51°19.03 2°50.047 13.5 -999 7.5 100960 100
2007-03-30 08:29:22 51°19.039 2°50.064 13.5 339 7.5 100960 100
2007-03-30 08:29:28 51°19.052 2°50.089 13.1 282 7.5 100960 100
2007-03-30 08:29:33 51°19.064 2°50.111 12.4 338 7.6 100960 100
2007-03-30 08:29:37 51°19.073 2°50.128 12.4 282 7.6 100960 100
2007-03-30 08:29:43 51°19.086 2°50.154 13.2 337 7.5 100960 100
2007-03-30 08:29:48 51°19.098 2°50.175 13.6 282 7.5 100960 100
2007-03-30 08:29:53 51°19.109 2°50.197 13.1 338 7.5 100970 100
2007-03-30 08:29:58 51°19.12 2°50.219 13.7 286 7.5 100970 100
2007-03-30 08:30:03 51°19.131 2°50.24 13.3 336 7.5 100970 100
2007-03-30 08:30:08 51°19.143 2°50.261 13.4 278 7.5 100970 100
2007-03-30 08:30:13 51°19.155 2°50.282 13.3 338 7.5 100960 100
2007-03-30 08:30:18 51°19.166 2°50.304 13.9 281 7.5 100960 100
2007-03-30 08:30:23 51°19.177 2°50.325 13.1 339 7.5 100970 100
2007-03-30 08:30:28 51°19.189 2°50.347 13.3 280 7.5 100970 100
2007-03-30 08:30:33 51°19.2 2°50.368 12.9 338 7.6 100970 100
2007-03-30 08:30:38 51°19.212 2°50.39 13.3 286 7.6 100970 100
2007-03-30 08:30:42 51°19.221 2°50.407 13.4 339 7.5 100960 100
2007-03-30 08:30:48 51°19.235 2°50.433 14.2 283 7.5 100960 100
2007-03-30 08:30:53 51°19.246 2°50.454 12.9 337 7.5 100970 100
2007-03-30 08:30:58 51°19.258 2°50.476 14.1 281 7.5 100970 100
2007-03-30 08:31:03 51°19.269 2°50.497 13.9 337 7.5 100960 100
2007-03-30 08:31:08 51°19.281 2°50.519 13.7 283 7.5 100960 100
2007-03-30 08:31:13 51°19.292 2°50.54 14.1 338 7.6 100970 100
2007-03-30 08:31:18 51°19.303 2°50.562 13.6 -999 7.6 100970 100
2007-03-30 08:31:23 51°19.315 2°50.583 13.7 337 7.5 100960 100
2007-03-30 08:31:28 51°19.326 2°50.604 14.2 284 7.5 100960 100
2007-03-30 08:31:33 51°19.338 2°50.625 13.6 338 7.5 100960 100
2007-03-30 08:31:38 51°19.35 2°50.647 13.3 278 7.5 100960 100
2007-03-30 08:31:42 51°19.359 2°50.664 12.8 339 7.5 100960 100
2007-03-30 08:31:48 51°19.372 2°50.688 12.5 282 7.5 100960 100
2007-03-30 08:31:53 51°19.382 2°50.707 12.6 339 7.6 100960 100
2007-03-30 08:31:58 51°19.392 2°50.725 12.6 278 7.6 100960 100
2007-03-30 08:32:03 51°19.4 2°50.742 11.5 339 7.6 100970 100
2007-03-30 08:32:08 51°19.409 2°50.757 11.1 285 7.6 100970 100
2007-03-30 08:32:13 51°19.416 2°50.772 9.8 337 7.5 100970 100
2007-03-30 08:32:18 51°19.423 2°50.786 10.4 281 7.5 100970 100
2007-03-30 08:32:23 51°19.43 2°50.799 10.6 338 7.5 100960 100
2007-03-30 08:32:28 51°19.436 2°50.812 10 280 7.5 100960 100
2007-03-30 08:32:33 51°19.442 2°50.824 10.5 339 7.5 100970 100
2007-03-30 08:32:38 51°19.448 2°50.835 10 283 7.5 100970 100
2007-03-30 08:32:43 51°19.452 2°50.845 9.6 341 7.5 100980 100
2007-03-30 08:32:48 51°19.458 2°50.855 9.3 285 7.5 100980 100
2007-03-30 08:32:53 51°19.462 2°50.865 10.1 338 7.5 100970 100
2007-03-30 08:32:58 51°19.467 2°50.874 10 285 7.5 100970 100
2007-03-30 08:33:03 51°19.471 2°50.883 10.5 340 7.5 100970 100
2007-03-30 08:33:08 51°19.475 2°50.891 9.7 280 7.5 100970 100
2007-03-30 08:33:12 51°19.478 2°50.898 8.6 341 7.5 100980 100
2007-03-30 08:33:17 51°19.482 2°50.905 9.1 -999 7.5 100980 100
2007-03-30 08:33:23 51°19.486 2°50.914 8.5 340 7.5 100980 100
2007-03-30 08:33:28 51°19.489 2°50.921 8.7 281 7.5 100980 100
2007-03-30 08:33:33 51°19.492 2°50.928 8 338 7.5 100980 100
2007-03-30 08:33:37 51°19.495 2°50.933 8.6 286 7.5 100980 100
2007-03-30 08:33:43 51°19.497 2°50.941 8.3 335 7.5 100970 100
2007-03-30 08:33:48 51°19.5 2°50.948 8.5 279 7.5 100970 100
2007-03-30 08:33:53 51°19.501 2°50.954 8.6 333 7.5 100970 100
2007-03-30 08:33:58 51°19.503 2°50.96 8.8 281 7.5 100970 100
2007-03-30 08:34:02 51°19.504 2°50.964 7.9 332 7.5 100980 100
2007-03-30 08:34:08 51°19.506 2°50.971 8 286 7.5 100980 100
2007-03-30 08:34:13 51°19.507 2°50.976 7.8 333 7.6 100980 100
2007-03-30 08:34:18 51°19.508 2°50.982 8.7 283 7.6 100980 100
2007-03-30 08:34:22 51°19.508 2°50.986 8.7 331 7.5 100980 100
2007-03-30 08:34:27 51°19.509 2°50.991 8.2 282 7.5 100980 100
2007-03-30 08:34:33 51°19.51 2°50.998 7.7 335 7.5 100980 100
2007-03-30 08:34:38 51°19.511 2°51.004 8.2 281 7.5 100980 100
2007-03-30 08:34:43 51°19.511 2°51.01 8.1 329 7.6 100980 100
2007-03-30 08:34:48 51°19.512 2°51.016 7.4 286 7.6 100980 100
2007-03-30 08:34:52 51°19.513 2°51.021 8.3 334 7.6 100980 100
2007-03-30 08:34:58 51°19.514 2°51.029 7.5 284 7.6 100980 100
2007-03-30 08:35:03 51°19.514 2°51.035 7.7 332 7.5 100980 100
2007-03-30 08:35:08 51°19.515 2°51.041 7.6 280 7.5 100980 100
2007-03-30 08:35:13 51°19.516 2°51.048 8.2 330 7.5 100980 100
2007-03-30 08:35:18 51°19.517 2°51.054 8.8 -999 7.5 100980 100
2007-03-30 08:35:23 51°19.518 2°51.061 7.7 333 7.5 100990 100
2007-03-30 08:35:28 51°19.519 2°51.067 8.5 282 7.5 100990 100
2007-03-30 08:35:32 51°19.52 2°51.073 9.4 334 7.6 100980 100
2007-03-30 08:35:38 51°19.521 2°51.081 9.4 285 7.6 100980 100
2007-03-30 08:35:43 51°19.522 2°51.089 9.3 335 7.6 100980 100
2007-03-30 08:35:48 51°19.523 2°51.096 9.4 282 7.6 100980 100
2007-03-30 08:35:53 51°19.525 2°51.103 8.7 333 7.6 100980 100
2007-03-30 08:35:57 51°19.526 2°51.11 9.3 286 7.6 100980 100
2007-03-30 08:36:03 51°19.528 2°51.119 9.1 333 7.6 100980 100
2007-03-30 08:36:08 51°19.529 2°51.127 8.6 281 7.6 100980 100
2007-03-30 08:36:13 51°19.531 2°51.135 9.6 334 7.6 100980 100
2007-03-30 08:36:18 51°19.533 2°51.143 9.4 284 7.6 100980 100
2007-03-30 08:36:23 51°19.535 2°51.151 9.4 336 7.5 100990 100
2007-03-30 08:36:28 51°19.537 2°51.159 9.2 284 7.5 100990 100
2007-03-30 08:36:33 51°19.539 2°51.167 8.8 338 7.5 100990 100
2007-03-30 08:36:38 51°19.542 2°51.175 9.5 280 7.5 100990 100
2007-03-30 08:36:43 51°19.544 2°51.183 8.7 335 7.5 100980 100
2007-03-30 08:36:48 51°19.546 2°51.192 8.9 279 7.5 100980 100
2007-03-30 08:36:53 51°19.549 2°51.2 9.2 336 7.5 100980 100
2007-03-30 08:36:58 51°19.551 2°51.208 9.3 281 7.5 100980 100
2007-03-30 08:37:03 51°19.554 2°51.216 9.7 336 7.5 100980 100
2007-03-30 08:37:08 51°19.556 2°51.224 9.7 284 7.5 100980 100
2007-03-30 08:37:13 51°19.559 2°51.231 8.5 338 7.5 100980 100
2007-03-30 08:37:18 51°19.561 2°51.239 8.5 -999 7.5 100980 100
2007-03-30 08:37:23 51°19.563 2°51.246 8.9 343 7.5 100980 100
2007-03-30 08:37:28 51°19.566 2°51.253 8.6 284 7.5 100980 100
2007-03-30 08:37:33 51°19.569 2°51.26 8.3 338 7.5 100980 100
2007-03-30 08:37:38 51°19.571 2°51.267 8.8 285 7.5 100980 100
2007-03-30 08:37:43 51°19.574 2°51.274 8.4 341 7.5 100980 100
2007-03-30 08:37:48 51°19.576 2°51.28 7.7 279 7.5 100980 100
2007-03-30 08:37:53 51°19.579 2°51.287 8.2 336 7.5 100980 100
2007-03-30 08:37:58 51°19.581 2°51.293 7.5 285 7.5 100980 100
2007-03-30 08:38:03 51°19.584 2°51.299 8.8 340 7.5 100980 100
2007-03-30 08:38:08 51°19.587 2°51.305 8.1 284 7.5 100980 100
2007-03-30 08:38:13 51°19.59 2°51.311 8.2 341 7.5 100980 100
2007-03-30 08:38:18 51°19.593 2°51.317 8.7 283 7.5 100980 100
2007-03-30 08:38:23 51°19.596 2°51.323 8.3 340 7.5 100980 100
2007-03-30 08:38:28 51°19.599 2°51.329 8.4 281 7.5 100980 100
2007-03-30 08:38:33 51°19.602 2°51.335 8.2 341 7.5 100980 100
2007-03-30 08:38:38 51°19.605 2°51.34 8.2 281 7.5 100980 100
2007-03-30 08:38:43 51°19.608 2°51.346 8.3 342 7.5 100980 100
2007-03-30 08:38:48 51°19.611 2°51.351 7.9 283 7.5 100980 100
2007-03-30 08:38:53 51°19.614 2°51.357 7.5 342 7.5 100980 100
2007-03-30 08:38:58 51°19.617 2°51.362 8.1 282 7.5 100980 100
2007-03-30 08:39:03 51°19.62 2°51.368 7.5 342 7.6 100990 100
2007-03-30 08:39:08 51°19.623 2°51.373 7.8 283 7.6 100990 100
2007-03-30 08:39:13 51°19.626 2°51.379 8.1 344 7.5 100980 100
2007-03-30 08:39:18 51°19.629 2°51.384 8.5 -999 7.5 100980 100
2007-03-30 08:39:23 51°19.632 2°51.39 7.5 343 7.6 100990 100
2007-03-30 08:39:28 51°19.634 2°51.395 7.5 283 7.6 100990 100
2007-03-30 08:39:33 51°19.637 2°51.401 8.6 340 7.6 100980 100
2007-03-30 08:39:38 51°19.64 2°51.407 8.9 286 7.6 100980 100
2007-03-30 08:39:43 51°19.643 2°51.412 8.5 341 7.6 100980 100
2007-03-30 08:39:48 51°19.646 2°51.418 8.5 285 7.6 100980 100
2007-03-30 08:39:53 51°19.649 2°51.424 8.9 340 7.6 100980 100
2007-03-30 08:39:58 51°19.652 2°51.43 9.8 286 7.6 100980 100
2007-03-30 08:40:03 51°19.655 2°51.435 8.7 340 7.6 100980 100
2007-03-30 08:40:08 51°19.657 2°51.441 8.8 284 7.6 100980 100
2007-03-30 08:40:13 51°19.66 2°51.447 8.9 341 7.6 100980 100
2007-03-30 08:40:18 51°19.663 2°51.453 8.4 286 7.6 100980 100
2007-03-30 08:40:23 51°19.665 2°51.459 8.5 340 7.5 100980 100
2007-03-30 08:40:28 51°19.668 2°51.464 8.7 279 7.5 100980 100
2007-03-30 08:40:33 51°19.671 2°51.47 8.4 340 7.5 100980 100
2007-03-30 08:40:37 51°19.673 2°51.475 8.7 285 7.5 100980 100
2007-03-30 08:40:43 51°19.676 2°51.482 8.5 340 7.5 100980 100
2007-03-30 08:40:48 51°19.679 2°51.488 8.3 282 7.5 100980 100
2007-03-30 08:40:53 51°19.681 2°51.495 8.2 340 7.5 100990 100
2007-03-30 08:40:58 51°19.683 2°51.501 8.5 280 7.5 100990 100
2007-03-30 08:41:03 51°19.686 2°51.507 7.6 341 7.5 100990 100
2007-03-30 08:41:08 51°19.688 2°51.513 7.8 279 7.5 100990 100
2007-03-30 08:41:13 51°19.69 2°51.519 8.5 338 7.5 100980 100
2007-03-30 08:41:18 51°19.693 2°51.525 8.2 -999 7.5 100980 100
2007-03-30 08:41:23 51°19.695 2°51.531 8.6 340 7.5 100980 100
2007-03-30 08:41:28 51°19.698 2°51.537 9.1 278 7.5 100980 100
2007-03-30 08:41:33 51°19.7 2°51.543 9.2 339 7.5 100990 100
2007-03-30 08:41:38 51°19.703 2°51.549 8.7 279 7.5 100990 100
2007-03-30 08:41:42 51°19.705 2°51.554 8.9 341 7.5 100990 100
2007-03-30 08:41:48 51°19.708 2°51.561 8.6 284 7.5 100990 100
2007-03-30 08:41:52 51°19.71 2°51.566 7.5 341 7.5 100980 100
2007-03-30 08:41:58 51°19.714 2°51.572 8 280 7.5 100980 100
2007-03-30 08:42:03 51°19.716 2°51.578 8.9 342 7.5 100980 100
2007-03-30 08:42:08 51°19.719 2°51.583 8 279 7.5 100980 100
2007-03-30 08:42:13 51°19.722 2°51.589 8.6 342 7.5 100990 100
2007-03-30 08:42:17 51°19.725 2°51.593 8.7 281 7.5 100990 100
2007-03-30 08:42:23 51°19.728 2°51.6 8.4 345 7.5 100990 100
2007-03-30 08:42:28 51°19.731 2°51.605 8.8 285 7.5 100990 100
2007-03-30 08:42:33 51°19.735 2°51.61 8.6 346 7.5 100980 100
2007-03-30 08:42:38 51°19.738 2°51.615 8.5 279 7.5 100980 100
2007-03-30 08:42:43 51°19.742 2°51.62 8.1 347 7.5 100980 100
2007-03-30 08:42:48 51°19.745 2°51.624 9.1 284 7.5 100980 100
2007-03-30 08:42:53 51°19.748 2°51.629 8.2 345 7.5 100980 100
2007-03-30 08:42:57 51°19.751 2°51.633 9 278 7.5 100980 100
2007-03-30 08:43:03 51°19.755 2°51.639 8.4 346 7.5 100990 100
2007-03-30 08:43:08 51°19.759 2°51.643 9.1 344 7.5 100990 100
2007-03-30 08:43:13 51°19.762 2°51.648 8.7 347 7.5 100990 100
2007-03-30 08:43:18 51°19.766 2°51.652 8.3 -999 7.5 100990 100
2007-03-30 08:43:23 51°19.77 2°51.657 9.2 345 7.5 100990 100
2007-03-30 08:43:28 51°19.773 2°51.661 9.1 347 7.5 100990 100
2007-03-30 08:43:33 51°19.777 2°51.665 9 345 7.5 100990 100
2007-03-30 08:43:38 51°19.781 2°51.67 8.8 280 7.5 100990 100
2007-03-30 08:43:43 51°19.784 2°51.674 9 345 7.5 100980 100
2007-03-30 08:43:48 51°19.788 2°51.679 8.7 281 7.5 100980 100
2007-03-30 08:43:53 51°19.791 2°51.684 8.4 346 7.5 100990 100
2007-03-30 08:43:58 51°19.794 2°51.688 7.6 280 7.5 100990 100
2007-03-30 08:44:03 51°19.798 2°51.693 8.7 344 7.5 100990 100
2007-03-30 08:44:08 51°19.801 2°51.698 9.1 282 7.5 100990 100
2007-03-30 08:44:12 51°19.803 2°51.702 8.8 344 7.5 100980 100
2007-03-30 08:44:18 51°19.807 2°51.709 9.1 284 7.5 100980 100
2007-03-30 08:44:23 51°19.81 2°51.714 8.5 344 7.5 100990 100
2007-03-30 08:44:28 51°19.813 2°51.719 8.9 286 7.5 100990 100
2007-03-30 08:44:33 51°19.816 2°51.725 8.7 342 7.5 100990 100
2007-03-30 08:44:38 51°19.818 2°51.731 8.8 284 7.5 100990 100
2007-03-30 08:44:43 51°19.821 2°51.736 8 339 7.5 100980 100
2007-03-30 08:44:48 51°19.823 2°51.742 8.2 281 7.5 100980 100
2007-03-30 08:44:53 51°19.826 2°51.748 8.3 342 7.4 100990 100
2007-03-30 08:44:58 51°19.829 2°51.754 8.2 280 7.4 100990 100
2007-03-30 08:45:03 51°19.831 2°51.76 8.6 343 7.5 100990 100
2007-03-30 08:45:08 51°19.833 2°51.766 7.7 280 7.5 100990 100
2007-03-30 08:45:13 51°19.836 2°51.772 7.2 338 7.5 100990 100
2007-03-30 08:45:18 51°19.839 2°51.778 8.4 -999 7.5 100990 100
2007-03-30 08:45:22 51°19.841 2°51.783 8.2 340 7.5 100990 100
2007-03-30 08:45:28 51°19.844 2°51.791 7.5 283 7.5 100990 100
2007-03-30 08:45:33 51°19.846 2°51.797 7.5 340 7.5 100990 100
2007-03-30 08:45:38 51°19.849 2°51.803 9 286 7.5 100990 100
2007-03-30 08:45:43 51°19.851 2°51.809 8.7 340 7.5 100990 100
2007-03-30 08:45:48 51°19.854 2°51.815 8.8 285 7.5 100990 100
2007-03-30 08:45:53 51°19.857 2°51.821 8.1 340 7.5 100990 100
2007-03-30 08:45:58 51°19.859 2°51.827 7.9 279 7.5 100990 100
2007-03-30 08:46:03 51°19.862 2°51.833 8.6 341 7.5 100990 100
2007-03-30 08:46:08 51°19.865 2°51.839 8.9 281 7.5 100990 100
2007-03-30 08:46:13 51°19.868 2°51.845 8.6 340 7.5 100990 100
2007-03-30 08:46:18 51°19.87 2°51.851 9 286 7.5 100990 100
2007-03-30 08:46:23 51°19.873 2°51.857 8.6 342 7.5 100990 100
2007-03-30 08:46:28 51°19.876 2°51.862 8.8 281 7.5 100990 100
2007-03-30 08:46:32 51°19.879 2°51.867 8.4 343 7.5 100990 100
2007-03-30 08:46:38 51°19.882 2°51.874 8.5 280 7.5 100990 100
2007-03-30 08:46:43 51°19.885 2°51.879 8.6 345 7.5 100990 100
2007-03-30 08:46:48 51°19.888 2°51.885 8.4 281 7.5 100990 100
2007-03-30 08:46:53 51°19.891 2°51.891 8.5 345 7.5 100990 100
2007-03-30 08:46:57 51°19.894 2°51.895 8.4 285 7.5 100990 100
2007-03-30 08:47:03 51°19.898 2°51.902 9.2 342 7.5 100990 100
2007-03-30 08:47:08 51°19.9 2°51.908 8.6 344 7.5 100990 100
2007-03-30 08:47:13 51°19.904 2°51.913 9 342 7.5 100990 100
2007-03-30 08:47:18 51°19.907 2°51.919 9.2 -999 7.5 100990 100
2007-03-30 08:47:23 51°19.91 2°51.924 8.7 342 7.5 100990 100
2007-03-30 08:47:28 51°19.913 2°51.93 9 286 7.5 100990 100
2007-03-30 08:47:33 51°19.916 2°51.935 8.9 342 7.5 100990 100
2007-03-30 08:47:38 51°19.919 2°51.941 9 281 7.5 100990 100
2007-03-30 08:47:42 51°19.922 2°51.945 8.9 341 7.5 100990 100
2007-03-30 08:47:48 51°19.926 2°51.951 8.6 284 7.5 100990 100
2007-03-30 08:47:53 51°19.929 2°51.957 8.2 343 7.5 100990 100
2007-03-30 08:47:58 51°19.932 2°51.962 8.4 282 7.5 100990 100
2007-03-30 08:48:02 51°19.935 2°51.967 8.6 343 7.5 100990 100
2007-03-30 08:48:08 51°19.938 2°51.973 9 285 7.5 100990 100
2007-03-30 08:48:13 51°19.941 2°51.979 9 341 7.5 100990 100
2007-03-30 08:48:18 51°19.945 2°51.984 8.4 284 7.5 100990 100
2007-03-30 08:48:23 51°19.948 2°51.99 8.5 343 7.5 100990 100
2007-03-30 08:48:28 51°19.951 2°51.996 9.3 282 7.5 100990 100
2007-03-30 08:48:33 51°19.953 2°52.001 8.6 338 7.5 100990 100
2007-03-30 08:48:38 51°19.956 2°52.007 9 282 7.5 100990 100
2007-03-30 08:48:43 51°19.959 2°52.013 8.8 339 7.5 100990 100
2007-03-30 08:48:48 51°19.962 2°52.019 8.6 280 7.5 100990 100
2007-03-30 08:48:53 51°19.965 2°52.025 8.8 340 7.5 100990 100
2007-03-30 08:48:58 51°19.968 2°52.031 9.1 281 7.5 100990 100
2007-03-30 08:49:02 51°19.97 2°52.036 8.7 338 7.5 100990 100
2007-03-30 08:49:08 51°19.973 2°52.043 9.2 286 7.5 100990 100
2007-03-30 08:49:13 51°19.976 2°52.049 8.8 339 7.5 100990 100
2007-03-30 08:49:18 51°19.978 2°52.055 9 -999 7.5 100990 100
2007-03-30 08:49:23 51°19.981 2°52.061 9.5 338 7.5 100980 100
2007-03-30 08:49:28 51°19.983 2°52.068 8.6 284 7.5 100980 100
2007-03-30 08:49:33 51°19.986 2°52.074 8.9 338 7.5 100980 100
2007-03-30 08:49:37 51°19.988 2°52.079 9.2 285 7.5 100980 100
2007-03-30 08:49:43 51°19.991 2°52.086 8.4 338 7.5 100990 100
2007-03-30 08:49:48 51°19.994 2°52.092 9.1 284 7.5 100990 100
2007-03-30 08:49:53 51°19.996 2°52.099 9.3 339 7.5 100990 100
2007-03-30 08:49:58 51°19.998 2°52.105 8.5 278 7.5 100990 100
2007-03-30 08:50:02 51°20.001 2°52.11 8.5 340 7.5 100990 100
2007-03-30 08:50:08 51°20.004 2°52.118 8.1 282 7.5 100990 100
2007-03-30 08:50:13 51°20.006 2°52.124 8.1 338 7.5 100990 100
2007-03-30 08:50:17 51°20.008 2°52.129 8.7 281 7.5 100990 100
2007-03-30 08:50:23 51°20.011 2°52.137 8.7 338 7.5 100990 100
2007-03-30 08:50:28 51°20.013 2°52.143 8.4 281 7.5 100990 100
2007-03-30 08:50:33 51°20.016 2°52.149 8.5 337 7.5 100990 100
2007-03-30 08:50:38 51°20.018 2°52.156 8.9 279 7.5 100990 100
2007-03-30 08:50:43 51°20.02 2°52.162 9.2 337 7.5 100990 100
2007-03-30 08:50:48 51°20.023 2°52.169 9 282 7.5 100990 100
2007-03-30 08:50:53 51°20.025 2°52.175 8.4 339 7.5 100990 100
2007-03-30 08:50:58 51°20.028 2°52.182 8.4 280 7.5 100990 100
2007-03-30 08:51:03 51°20.03 2°52.188 8.6 338 7.5 100990 100
2007-03-30 08:51:08 51°20.032 2°52.195 8.3 282 7.5 100990 100
2007-03-30 08:51:13 51°20.035 2°52.201 8.7 337 7.5 100990 100
2007-03-30 08:51:18 51°20.037 2°52.207 8.7 -999 7.5 100990 100
2007-03-30 08:51:22 51°20.039 2°52.212 8.3 338 7.5 100990 100
2007-03-30 08:51:28 51°20.042 2°52.22 8.8 285 7.5 100990 100
2007-03-30 08:51:33 51°20.045 2°52.226 8.6 337 7.5 100990 100
2007-03-30 08:51:38 51°20.047 2°52.233 8.6 285 7.5 100990 100
2007-03-30 08:51:43 51°20.05 2°52.239 8.3 339 7.5 100990 100
2007-03-30 08:51:48 51°20.052 2°52.245 8.4 280 7.5 100990 100
2007-03-30 08:51:53 51°20.055 2°52.251 8.5 340 7.5 100990 100
2007-03-30 08:51:58 51°20.058 2°52.258 8.1 286 7.5 100990 100
2007-03-30 08:52:03 51°20.06 2°52.264 8.6 340 7.5 101000 100
2007-03-30 08:52:08 51°20.063 2°52.27 7.9 284 7.5 101000 100
2007-03-30 08:52:13 51°20.065 2°52.276 7.7 339 7.5 100990 100
2007-03-30 08:52:18 51°20.068 2°52.282 8.1 283 7.5 100990 100
2007-03-30 08:52:22 51°20.07 2°52.287 7.8 338 7.5 100990 100
2007-03-30 08:52:28 51°20.073 2°52.295 8.3 282 7.5 100990 100
2007-03-30 08:52:33 51°20.076 2°52.301 7.4 340 7.5 101000 100
2007-03-30 08:52:38 51°20.079 2°52.307 8.4 279 7.5 101000 100
2007-03-30 08:52:42 51°20.081 2°52.312 8.9 339 7.5 100990 100
2007-03-30 08:52:48 51°20.085 2°52.319 8.5 284 7.5 100990 100
2007-03-30 08:52:53 51°20.087 2°52.326 8.4 339 7.5 100990 100
2007-03-30 08:52:58 51°20.09 2°52.332 8.6 283 7.5 100990 100
2007-03-30 08:53:03 51°20.093 2°52.338 8.1 339 7.4 100990 100
2007-03-30 08:53:08 51°20.095 2°52.344 8.5 281 7.4 100990 100
2007-03-30 08:53:13 51°20.098 2°52.35 8.1 339 7.5 100990 100
2007-03-30 08:53:18 51°20.101 2°52.356 8.4 -999 7.5 100990 100
2007-03-30 08:53:23 51°20.104 2°52.362 8.9 338 7.5 100990 100
2007-03-30 08:53:28 51°20.106 2°52.368 8.2 280 7.5 100990 100
2007-03-30 08:53:33 51°20.109 2°52.374 8.2 339 7.5 100990 100
2007-03-30 08:53:37 51°20.111 2°52.379 8.3 284 7.5 100990 100
2007-03-30 08:53:43 51°20.115 2°52.387 8.5 338 7.4 100990 100
2007-03-30 08:53:48 51°20.118 2°52.393 8 278 7.4 100990 100
2007-03-30 08:53:53 51°20.12 2°52.399 8.5 337 7.4 101000 100
2007-03-30 08:53:57 51°20.123 2°52.404 8 282 7.4 101000 100
2007-03-30 08:54:03 51°20.126 2°52.411 8.3 339 7.4 100990 100
2007-03-30 08:54:08 51°20.129 2°52.417 7.9 281 7.4 100990 100
2007-03-30 08:54:13 51°20.132 2°52.423 8.2 338 7.4 100990 100
2007-03-30 08:54:17 51°20.134 2°52.428 9 280 7.4 100990 100
2007-03-30 08:54:23 51°20.137 2°52.435 8.8 339 7.5 101000 100
2007-03-30 08:54:28 51°20.14 2°52.441 8.7 281 7.5 101000 100
2007-03-30 08:54:33 51°20.143 2°52.447 7.9 341 7.5 101000 100
2007-03-30 08:54:38 51°20.146 2°52.453 8.4 283 7.5 101000 100
2007-03-30 08:54:43 51°20.149 2°52.46 8.1 341 7.5 100990 100
2007-03-30 08:54:48 51°20.152 2°52.466 8 283 7.5 100990 100
2007-03-30 08:54:53 51°20.155 2°52.472 8.1 342 7.5 100990 100
2007-03-30 08:54:58 51°20.157 2°52.478 8.2 279 7.5 100990 100
2007-03-30 08:55:02 51°20.16 2°52.482 7.3 336 7.5 100990 100
2007-03-30 08:55:08 51°20.163 2°52.49 7.6 285 7.5 100990 100
2007-03-30 08:55:13 51°20.166 2°52.496 9.2 337 7.5 101000 100
2007-03-30 08:55:18 51°20.169 2°52.502 8.6 -999 7.5 101000 100
2007-03-30 08:55:23 51°20.172 2°52.508 8 339 7.5 100990 100
2007-03-30 08:55:28 51°20.175 2°52.514 8.3 279 7.5 100990 100
2007-03-30 08:55:33 51°20.178 2°52.52 8.3 339 7.5 101000 100
2007-03-30 08:55:38 51°20.181 2°52.526 8.3 286 7.5 101000 100
2007-03-30 08:55:43 51°20.184 2°52.532 9.1 339 7.5 101000 100
2007-03-30 08:55:48 51°20.186 2°52.538 8.8 282 7.5 101000 100
2007-03-30 08:55:53 51°20.189 2°52.544 4.4 340 7.5 101000 100
2007-03-30 08:55:58 51°20.192 2°52.55 8.9 280 7.5 101000 100
2007-03-30 08:56:03 51°20.195 2°52.556 9.3 340 7.5 100990 100
2007-03-30 08:56:08 51°20.198 2°52.562 8.8 283 7.5 100990 100
2007-03-30 08:56:13 51°20.201 2°52.568 9.3 339 7.5 100990 100
2007-03-30 08:56:18 51°20.204 2°52.574 9.4 281 7.5 100990 100
2007-03-30 08:56:23 51°20.207 2°52.58 9.3 339 7.5 100990 100
2007-03-30 08:56:28 51°20.21 2°52.586 8.3 282 7.5 100990 100
2007-03-30 08:56:33 51°20.213 2°52.592 8.9 339 7.5 100990 100
2007-03-30 08:56:37 51°20.215 2°52.596 9.4 283 7.5 100990 100
2007-03-30 08:56:43 51°20.218 2°52.604 9.1 337 7.5 100990 100
2007-03-30 08:56:48 51°20.221 2°52.61 8.9 284 7.5 100990 100
2007-03-30 08:56:53 51°20.224 2°52.616 9.3 336 7.5 100990 100
2007-03-30 08:56:58 51°20.227 2°52.622 8.6 282 7.5 100990 100
2007-03-30 08:57:03 51°20.229 2°52.628 9.1 338 7.5 100990 100
2007-03-30 08:57:08 51°20.232 2°52.634 9 282 7.5 100990 100
2007-03-30 08:57:13 51°20.234 2°52.641 9.4 336 7.5 100990 100
2007-03-30 08:57:18 51°20.237 2°52.647 9 -999 7.5 100990 100
2007-03-30 08:57:23 51°20.239 2°52.653 9.3 336 7.5 100990 100
2007-03-30 08:57:28 51°20.242 2°52.659 9.2 284 7.5 100990 100
2007-03-30 08:57:33 51°20.244 2°52.666 8.7 336 7.4 101000 100
2007-03-30 08:57:38 51°20.247 2°52.672 9.6 280 7.4 101000 100
2007-03-30 08:57:43 51°20.249 2°52.679 9.7 337 7.4 101000 100
2007-03-30 08:57:48 51°20.251 2°52.685 8.9 285 7.4 101000 100
2007-03-30 08:57:53 51°20.254 2°52.691 9.3 338 7.4 100990 100
2007-03-30 08:57:58 51°20.256 2°52.698 9.1 281 7.4 100990 100
2007-03-30 08:58:03 51°20.259 2°52.704 8.8 339 7.4 101000 100
2007-03-30 08:58:08 51°20.262 2°52.71 9.3 283 7.4 101000 100
2007-03-30 08:58:13 51°20.264 2°52.716 8.6 340 7.4 100990 100
2007-03-30 08:58:18 51°20.267 2°52.722 8.5 282 7.4 100990 100
2007-03-30 08:58:23 51°20.27 2°52.728 8.5 339 7.4 100990 100